sensor_id;sensor_type;location;lat;lon;timestamp;P1;durP1;ratioP1;P2;durP2;ratioP2
47790;SDS011;33547;49.044;1.156;2023-02-28T00:00:32;15.35;;;8.52;;
47790;SDS011;33547;49.044;1.156;2023-02-28T00:02:59;15.90;;;10.65;;
47790;SDS011;33547;49.044;1.156;2023-02-28T00:05:25;16.23;;;11.07;;
47790;SDS011;33547;49.044;1.156;2023-02-28T00:07:51;17.52;;;11.25;;
47790;SDS011;33547;49.044;1.156;2023-02-28T00:10:18;21.67;;;12.70;;
47790;SDS011;33547;49.044;1.156;2023-02-28T00:12:49;18.52;;;11.65;;
47790;SDS011;33547;49.044;1.156;2023-02-28T00:15:15;13.10;;;8.43;;
47790;SDS011;33547;49.044;1.156;2023-02-28T00:17:41;13.63;;;9.20;;
47790;SDS011;33547;49.044;1.156;2023-02-28T00:20:08;12.18;;;8.45;;
47790;SDS011;33547;49.044;1.156;2023-02-28T00:22:41;15.70;;;9.10;;
47790;SDS011;33547;49.044;1.156;2023-02-28T00:25:09;11.88;;;8.15;;
47790;SDS011;33547;49.044;1.156;2023-02-28T00:27:38;13.00;;;8.25;;
47790;SDS011;33547;49.044;1.156;2023-02-28T00:30:04;10.98;;;7.75;;
47790;SDS011;33547;49.044;1.156;2023-02-28T00:32:32;12.00;;;8.50;;
47790;SDS011;33547;49.044;1.156;2023-02-28T00:34:59;9.68;;;7.30;;
47790;SDS011;33547;49.044;1.156;2023-02-28T00:37:25;9.50;;;7.20;;
47790;SDS011;33547;49.044;1.156;2023-02-28T00:39:50;11.65;;;8.15;;
47790;SDS011;33547;49.044;1.156;2023-02-28T00:42:16;14.82;;;9.30;;
47790;SDS011;33547;49.044;1.156;2023-02-28T00:44:42;10.95;;;8.32;;
47790;SDS011;33547;49.044;1.156;2023-02-28T00:47:08;15.68;;;9.10;;
47790;SDS011;33547;49.044;1.156;2023-02-28T00:49:33;12.55;;;9.23;;
47790;SDS011;33547;49.044;1.156;2023-02-28T00:51:59;12.77;;;8.05;;
47790;SDS011;33547;49.044;1.156;2023-02-28T00:54:25;16.92;;;10.70;;
47790;SDS011;33547;49.044;1.156;2023-02-28T00:56:50;16.05;;;10.52;;
47790;SDS011;33547;49.044;1.156;2023-02-28T00:59:16;15.93;;;11.82;;
47790;SDS011;33547;49.044;1.156;2023-02-28T01:01:43;17.17;;;11.85;;
47790;SDS011;33547;49.044;1.156;2023-02-28T01:04:10;17.88;;;12.43;;
47790;SDS011;33547;49.044;1.156;2023-02-28T01:06:36;12.85;;;10.23;;
47790;SDS011;33547;49.044;1.156;2023-02-28T01:09:03;14.68;;;10.80;;
47790;SDS011;33547;49.044;1.156;2023-02-28T01:11:30;15.80;;;11.70;;
47790;SDS011;33547;49.044;1.156;2023-02-28T01:13:56;15.13;;;11.50;;
47790;SDS011;33547;49.044;1.156;2023-02-28T01:16:22;14.80;;;11.98;;
47790;SDS011;33547;49.044;1.156;2023-02-28T01:18:48;14.98;;;11.48;;
47790;SDS011;33547;49.044;1.156;2023-02-28T01:21:15;15.27;;;11.55;;
47790;SDS011;33547;49.044;1.156;2023-02-28T01:23:42;18.65;;;12.40;;
47790;SDS011;33547;49.044;1.156;2023-02-28T01:26:09;15.52;;;11.65;;
47790;SDS011;33547;49.044;1.156;2023-02-28T01:28:38;16.02;;;10.48;;
47790;SDS011;33547;49.044;1.156;2023-02-28T01:31:04;14.43;;;10.50;;
47790;SDS011;33547;49.044;1.156;2023-02-28T01:33:30;16.70;;;11.43;;
47790;SDS011;33547;49.044;1.156;2023-02-28T01:35:57;15.00;;;11.20;;
47790;SDS011;33547;49.044;1.156;2023-02-28T01:38:24;14.23;;;9.77;;
47790;SDS011;33547;49.044;1.156;2023-02-28T01:40:50;14.98;;;11.27;;
47790;SDS011;33547;49.044;1.156;2023-02-28T01:43:26;15.82;;;10.60;;
47790;SDS011;33547;49.044;1.156;2023-02-28T01:46:15;16.08;;;10.57;;
47790;SDS011;33547;49.044;1.156;2023-02-28T01:48:45;14.90;;;11.05;;
47790;SDS011;33547;49.044;1.156;2023-02-28T01:51:45;11.57;;;9.80;;
47790;SDS011;33547;49.044;1.156;2023-02-28T01:54:26;14.05;;;10.38;;
47790;SDS011;33547;49.044;1.156;2023-02-28T01:56:56;18.27;;;11.70;;
47790;SDS011;33547;49.044;1.156;2023-02-28T01:59:42;15.32;;;10.63;;
47790;SDS011;33547;49.044;1.156;2023-02-28T02:02:17;15.65;;;10.45;;
47790;SDS011;33547;49.044;1.156;2023-02-28T02:04:53;19.17;;;11.43;;
47790;SDS011;33547;49.044;1.156;2023-02-28T02:07:23;17.05;;;10.63;;
47790;SDS011;33547;49.044;1.156;2023-02-28T02:09:56;14.63;;;10.60;;
47790;SDS011;33547;49.044;1.156;2023-02-28T02:15:26;14.05;;;10.60;;
47790;SDS011;33547;49.044;1.156;2023-02-28T02:18:49;15.18;;;10.95;;
47790;SDS011;33547;49.044;1.156;2023-02-28T02:26:55;15.10;;;11.93;;
47790;SDS011;33547;49.044;1.156;2023-02-28T02:38:04;13.57;;;10.27;;
47790;SDS011;33547;49.044;1.156;2023-02-28T02:40:47;12.73;;;9.70;;
47790;SDS011;33547;49.044;1.156;2023-02-28T02:43:22;10.68;;;9.45;;
47790;SDS011;33547;49.044;1.156;2023-02-28T02:46:04;14.13;;;9.65;;
47790;SDS011;33547;49.044;1.156;2023-02-28T02:48:42;13.82;;;10.52;;
47790;SDS011;33547;49.044;1.156;2023-02-28T02:51:12;16.33;;;11.77;;
47790;SDS011;33547;49.044;1.156;2023-02-28T02:53:42;13.40;;;10.80;;
47790;SDS011;33547;49.044;1.156;2023-02-28T02:56:16;15.60;;;12.00;;
47790;SDS011;33547;49.044;1.156;2023-02-28T02:58:47;15.45;;;13.07;;
47790;SDS011;33547;49.044;1.156;2023-02-28T03:01:16;14.18;;;11.90;;
47790;SDS011;33547;49.044;1.156;2023-02-28T03:03:53;16.40;;;12.15;;
47790;SDS011;33547;49.044;1.156;2023-02-28T03:06:26;13.88;;;12.48;;
47790;SDS011;33547;49.044;1.156;2023-02-28T03:08:52;14.57;;;11.25;;
47790;SDS011;33547;49.044;1.156;2023-02-28T03:11:18;16.75;;;11.45;;
47790;SDS011;33547;49.044;1.156;2023-02-28T03:16:28;13.38;;;11.07;;
47790;SDS011;33547;49.044;1.156;2023-02-28T03:27:53;14.27;;;12.57;;
47790;SDS011;33547;49.044;1.156;2023-02-28T03:35:39;18.20;;;12.18;;
47790;SDS011;33547;49.044;1.156;2023-02-28T03:38:14;16.02;;;13.07;;
47790;SDS011;33547;49.044;1.156;2023-02-28T03:40:48;15.13;;;12.63;;
47790;SDS011;33547;49.044;1.156;2023-02-28T03:43:22;14.95;;;13.15;;
47790;SDS011;33547;49.044;1.156;2023-02-28T03:45:51;15.98;;;12.07;;
47790;SDS011;33547;49.044;1.156;2023-02-28T03:48:28;16.88;;;12.43;;
47790;SDS011;33547;49.044;1.156;2023-02-28T03:50:59;14.90;;;12.13;;
47790;SDS011;33547;49.044;1.156;2023-02-28T03:58:44;15.25;;;11.30;;
47790;SDS011;33547;49.044;1.156;2023-02-28T04:04:02;13.30;;;11.18;;
47790;SDS011;33547;49.044;1.156;2023-02-28T04:06:29;13.55;;;10.70;;
47790;SDS011;33547;49.044;1.156;2023-02-28T04:08:57;17.65;;;12.15;;
47790;SDS011;33547;49.044;1.156;2023-02-28T04:11:33;11.57;;;10.13;;
47790;SDS011;33547;49.044;1.156;2023-02-28T04:14:04;15.02;;;11.13;;
47790;SDS011;33547;49.044;1.156;2023-02-28T04:16:31;13.55;;;10.93;;
47790;SDS011;33547;49.044;1.156;2023-02-28T04:18:57;14.75;;;12.20;;
47790;SDS011;33547;49.044;1.156;2023-02-28T04:21:27;19.05;;;13.15;;
47790;SDS011;33547;49.044;1.156;2023-02-28T04:23:54;17.98;;;12.95;;
47790;SDS011;33547;49.044;1.156;2023-02-28T04:26:20;16.38;;;12.02;;
47790;SDS011;33547;49.044;1.156;2023-02-28T04:28:45;16.83;;;12.27;;
47790;SDS011;33547;49.044;1.156;2023-02-28T04:31:11;13.93;;;11.48;;
47790;SDS011;33547;49.044;1.156;2023-02-28T04:33:36;15.07;;;13.48;;
47790;SDS011;33547;49.044;1.156;2023-02-28T04:36:06;17.75;;;13.32;;
47790;SDS011;33547;49.044;1.156;2023-02-28T04:38:34;14.82;;;11.60;;
47790;SDS011;33547;49.044;1.156;2023-02-28T04:41:01;16.23;;;12.70;;
47790;SDS011;33547;49.044;1.156;2023-02-28T04:43:27;14.70;;;11.80;;
47790;SDS011;33547;49.044;1.156;2023-02-28T04:45:54;13.95;;;12.45;;
47790;SDS011;33547;49.044;1.156;2023-02-28T04:48:25;14.95;;;13.43;;
47790;SDS011;33547;49.044;1.156;2023-02-28T04:50:52;15.85;;;13.55;;
47790;SDS011;33547;49.044;1.156;2023-02-28T04:53:18;18.25;;;13.23;;
47790;SDS011;33547;49.044;1.156;2023-02-28T04:55:44;14.63;;;12.77;;
47790;SDS011;33547;49.044;1.156;2023-02-28T04:58:11;17.92;;;13.27;;
47790;SDS011;33547;49.044;1.156;2023-02-28T05:00:37;16.67;;;12.63;;
47790;SDS011;33547;49.044;1.156;2023-02-28T05:03:03;17.90;;;12.98;;
47790;SDS011;33547;49.044;1.156;2023-02-28T05:05:28;17.30;;;13.57;;
47790;SDS011;33547;49.044;1.156;2023-02-28T05:07:54;15.07;;;13.40;;
47790;SDS011;33547;49.044;1.156;2023-02-28T05:10:20;15.10;;;13.43;;
47790;SDS011;33547;49.044;1.156;2023-02-28T05:12:49;19.27;;;14.90;;
47790;SDS011;33547;49.044;1.156;2023-02-28T05:15:15;17.75;;;14.15;;
47790;SDS011;33547;49.044;1.156;2023-02-28T05:17:42;19.40;;;13.52;;
47790;SDS011;33547;49.044;1.156;2023-02-28T05:20:08;16.52;;;13.93;;
47790;SDS011;33547;49.044;1.156;2023-02-28T05:22:41;18.48;;;14.20;;
47790;SDS011;33547;49.044;1.156;2023-02-28T05:25:09;19.52;;;14.93;;
47790;SDS011;33547;49.044;1.156;2023-02-28T05:27:37;20.58;;;15.82;;
47790;SDS011;33547;49.044;1.156;2023-02-28T05:30:03;24.10;;;16.02;;
47790;SDS011;33547;49.044;1.156;2023-02-28T05:32:31;17.52;;;14.43;;
47790;SDS011;33547;49.044;1.156;2023-02-28T05:34:56;21.38;;;15.43;;
47790;SDS011;33547;49.044;1.156;2023-02-28T05:37:22;21.48;;;16.33;;
47790;SDS011;33547;49.044;1.156;2023-02-28T05:39:48;21.00;;;16.17;;
47790;SDS011;33547;49.044;1.156;2023-02-28T05:42:13;21.23;;;15.15;;
47790;SDS011;33547;49.044;1.156;2023-02-28T05:44:39;19.92;;;15.85;;
47790;SDS011;33547;49.044;1.156;2023-02-28T05:47:05;18.80;;;14.27;;
47790;SDS011;33547;49.044;1.156;2023-02-28T05:49:30;20.52;;;15.45;;
47790;SDS011;33547;49.044;1.156;2023-02-28T05:51:56;22.90;;;16.30;;
47790;SDS011;33547;49.044;1.156;2023-02-28T05:54:21;21.13;;;14.98;;
47790;SDS011;33547;49.044;1.156;2023-02-28T05:56:47;21.15;;;14.98;;
47790;SDS011;33547;49.044;1.156;2023-02-28T05:59:13;23.23;;;15.70;;
47790;SDS011;33547;49.044;1.156;2023-02-28T06:01:39;21.48;;;16.48;;
47790;SDS011;33547;49.044;1.156;2023-02-28T06:04:08;21.50;;;15.98;;
47790;SDS011;33547;49.044;1.156;2023-02-28T06:06:35;23.58;;;16.35;;
47790;SDS011;33547;49.044;1.156;2023-02-28T06:09:02;31.30;;;19.05;;
47790;SDS011;33547;49.044;1.156;2023-02-28T06:11:29;29.65;;;18.55;;
47790;SDS011;33547;49.044;1.156;2023-02-28T06:13:58;29.02;;;18.88;;
47790;SDS011;33547;49.044;1.156;2023-02-28T06:16:26;31.35;;;20.70;;
47790;SDS011;33547;49.044;1.156;2023-02-28T06:18:52;33.03;;;21.05;;
47790;SDS011;33547;49.044;1.156;2023-02-28T06:21:20;30.05;;;21.67;;
47790;SDS011;33547;49.044;1.156;2023-02-28T06:23:47;34.13;;;21.23;;
47790;SDS011;33547;49.044;1.156;2023-02-28T06:26:13;33.63;;;21.70;;
47790;SDS011;33547;49.044;1.156;2023-02-28T06:28:38;30.83;;;20.50;;
47790;SDS011;33547;49.044;1.156;2023-02-28T06:31:11;39.50;;;25.75;;
47790;SDS011;33547;49.044;1.156;2023-02-28T06:33:39;36.33;;;24.92;;
47790;SDS011;33547;49.044;1.156;2023-02-28T06:36:07;33.70;;;21.48;;
47790;SDS011;33547;49.044;1.156;2023-02-28T06:38:34;39.58;;;23.42;;
47790;SDS011;33547;49.044;1.156;2023-02-28T06:40:59;24.52;;;19.13;;
47790;SDS011;33547;49.044;1.156;2023-02-28T06:43:27;27.10;;;18.83;;
47790;SDS011;33547;49.044;1.156;2023-02-28T06:45:55;24.38;;;17.98;;
47790;SDS011;33547;49.044;1.156;2023-02-28T06:48:23;26.33;;;19.23;;
47790;SDS011;33547;49.044;1.156;2023-02-28T06:50:49;24.88;;;18.25;;
47790;SDS011;33547;49.044;1.156;2023-02-28T06:53:15;26.75;;;18.00;;
47790;SDS011;33547;49.044;1.156;2023-02-28T06:55:41;23.80;;;18.70;;
47790;SDS011;33547;49.044;1.156;2023-02-28T06:58:06;27.08;;;19.08;;
47790;SDS011;33547;49.044;1.156;2023-02-28T07:00:44;23.30;;;19.13;;
47790;SDS011;33547;49.044;1.156;2023-02-28T07:03:11;27.88;;;19.13;;
47790;SDS011;33547;49.044;1.156;2023-02-28T07:05:37;26.38;;;20.05;;
47790;SDS011;33547;49.044;1.156;2023-02-28T07:08:04;27.35;;;19.52;;
47790;SDS011;33547;49.044;1.156;2023-02-28T07:10:33;23.98;;;19.15;;
47790;SDS011;33547;49.044;1.156;2023-02-28T07:13:03;30.25;;;21.33;;
47790;SDS011;33547;49.044;1.156;2023-02-28T07:15:29;26.63;;;19.83;;
47790;SDS011;33547;49.044;1.156;2023-02-28T07:17:54;27.33;;;20.13;;
47790;SDS011;33547;49.044;1.156;2023-02-28T07:20:21;28.67;;;20.20;;
47790;SDS011;33547;49.044;1.156;2023-02-28T07:22:48;26.35;;;19.65;;
47790;SDS011;33547;49.044;1.156;2023-02-28T07:25:20;31.80;;;22.63;;
47790;SDS011;33547;49.044;1.156;2023-02-28T07:27:53;27.70;;;20.80;;
47790;SDS011;33547;49.044;1.156;2023-02-28T07:30:20;31.80;;;22.52;;
47790;SDS011;33547;49.044;1.156;2023-02-28T07:32:46;32.30;;;24.25;;
47790;SDS011;33547;49.044;1.156;2023-02-28T07:35:12;30.05;;;22.90;;
47790;SDS011;33547;49.044;1.156;2023-02-28T07:37:40;31.60;;;22.58;;
47790;SDS011;33547;49.044;1.156;2023-02-28T07:40:07;33.80;;;20.60;;
47790;SDS011;33547;49.044;1.156;2023-02-28T07:42:36;29.50;;;21.80;;
47790;SDS011;33547;49.044;1.156;2023-02-28T07:45:03;28.75;;;21.15;;
47790;SDS011;33547;49.044;1.156;2023-02-28T07:47:29;31.33;;;22.13;;
47790;SDS011;33547;49.044;1.156;2023-02-28T07:49:55;25.25;;;20.50;;
47790;SDS011;33547;49.044;1.156;2023-02-28T07:52:21;25.92;;;19.75;;
47790;SDS011;33547;49.044;1.156;2023-02-28T07:54:48;21.55;;;18.85;;
47790;SDS011;33547;49.044;1.156;2023-02-28T07:57:14;20.63;;;17.05;;
47790;SDS011;33547;49.044;1.156;2023-02-28T07:59:40;19.55;;;17.55;;
47790;SDS011;33547;49.044;1.156;2023-02-28T08:02:06;22.63;;;18.08;;
47790;SDS011;33547;49.044;1.156;2023-02-28T08:04:36;20.08;;;16.38;;
47790;SDS011;33547;49.044;1.156;2023-02-28T08:07:02;21.15;;;16.42;;
47790;SDS011;33547;49.044;1.156;2023-02-28T08:09:27;21.08;;;17.30;;
47790;SDS011;33547;49.044;1.156;2023-02-28T08:11:54;20.23;;;17.08;;
47790;SDS011;33547;49.044;1.156;2023-02-28T08:14:20;19.80;;;16.50;;
47790;SDS011;33547;49.044;1.156;2023-02-28T08:16:46;18.65;;;16.42;;
47790;SDS011;33547;49.044;1.156;2023-02-28T08:19:11;16.67;;;14.98;;
47790;SDS011;33547;49.044;1.156;2023-02-28T08:21:37;16.98;;;15.18;;
47790;SDS011;33547;49.044;1.156;2023-02-28T08:24:02;16.38;;;14.65;;
47790;SDS011;33547;49.044;1.156;2023-02-28T08:26:28;16.25;;;14.43;;
47790;SDS011;33547;49.044;1.156;2023-02-28T08:28:54;14.18;;;12.68;;
47790;SDS011;33547;49.044;1.156;2023-02-28T08:31:20;16.33;;;14.18;;
47790;SDS011;33547;49.044;1.156;2023-02-28T08:33:46;15.55;;;13.93;;
47790;SDS011;33547;49.044;1.156;2023-02-28T08:36:13;14.50;;;12.52;;
47790;SDS011;33547;49.044;1.156;2023-02-28T08:38:40;16.40;;;13.75;;
47790;SDS011;33547;49.044;1.156;2023-02-28T08:41:07;14.13;;;12.73;;
47790;SDS011;33547;49.044;1.156;2023-02-28T08:43:34;14.55;;;13.05;;
47790;SDS011;33547;49.044;1.156;2023-02-28T08:46:01;15.20;;;13.48;;
47790;SDS011;33547;49.044;1.156;2023-02-28T08:48:28;13.63;;;12.23;;
47790;SDS011;33547;49.044;1.156;2023-02-28T08:51:04;12.82;;;11.48;;
47790;SDS011;33547;49.044;1.156;2023-02-28T08:53:36;13.57;;;12.18;;
47790;SDS011;33547;49.044;1.156;2023-02-28T08:56:04;14.93;;;12.40;;
47790;SDS011;33547;49.044;1.156;2023-02-28T08:58:32;14.52;;;11.40;;
47790;SDS011;33547;49.044;1.156;2023-02-28T09:00:59;13.98;;;12.00;;
47790;SDS011;33547;49.044;1.156;2023-02-28T09:03:25;13.15;;;11.52;;
47790;SDS011;33547;49.044;1.156;2023-02-28T09:05:59;15.10;;;11.73;;
47790;SDS011;33547;49.044;1.156;2023-02-28T09:08:26;13.05;;;11.65;;
47790;SDS011;33547;49.044;1.156;2023-02-28T09:10:53;11.05;;;9.95;;
47790;SDS011;33547;49.044;1.156;2023-02-28T09:13:21;12.38;;;11.07;;
47790;SDS011;33547;49.044;1.156;2023-02-28T09:15:47;10.10;;;9.05;;
47790;SDS011;33547;49.044;1.156;2023-02-28T09:18:13;11.77;;;8.52;;
47790;SDS011;33547;49.044;1.156;2023-02-28T09:20:40;10.25;;;9.23;;
47790;SDS011;33547;49.044;1.156;2023-02-28T09:23:06;9.10;;;8.20;;
47790;SDS011;33547;49.044;1.156;2023-02-28T09:25:33;8.57;;;7.80;;
47790;SDS011;33547;49.044;1.156;2023-02-28T09:27:59;10.73;;;7.75;;
47790;SDS011;33547;49.044;1.156;2023-02-28T09:30:25;8.65;;;7.85;;
47790;SDS011;33547;49.044;1.156;2023-02-28T09:32:51;8.55;;;7.40;;
47790;SDS011;33547;49.044;1.156;2023-02-28T09:35:19;7.55;;;6.72;;
47790;SDS011;33547;49.044;1.156;2023-02-28T09:37:46;7.38;;;6.65;;
47790;SDS011;33547;49.044;1.156;2023-02-28T09:40:15;8.50;;;6.40;;
47790;SDS011;33547;49.044;1.156;2023-02-28T09:42:44;6.82;;;5.60;;
47790;SDS011;33547;49.044;1.156;2023-02-28T09:45:24;6.28;;;5.45;;
47790;SDS011;33547;49.044;1.156;2023-02-28T09:47:56;6.15;;;5.45;;
47790;SDS011;33547;49.044;1.156;2023-02-28T09:52:58;7.57;;;5.47;;
47790;SDS011;33547;49.044;1.156;2023-02-28T09:58:01;5.90;;;4.80;;
47790;SDS011;33547;49.044;1.156;2023-02-28T10:00:30;5.28;;;4.75;;
47790;SDS011;33547;49.044;1.156;2023-02-28T10:06:16;5.85;;;5.13;;
47790;SDS011;33547;49.044;1.156;2023-02-28T10:11:38;5.78;;;4.40;;
47790;SDS011;33547;49.044;1.156;2023-02-28T10:14:28;4.47;;;4.00;;
47790;SDS011;33547;49.044;1.156;2023-02-28T10:17:04;4.18;;;3.70;;
47790;SDS011;33547;49.044;1.156;2023-02-28T10:22:34;4.72;;;4.20;;
47790;SDS011;33547;49.044;1.156;2023-02-28T10:27:31;3.85;;;3.25;;
47790;SDS011;33547;49.044;1.156;2023-02-28T10:30:01;4.13;;;3.58;;
47790;SDS011;33547;49.044;1.156;2023-02-28T10:32:34;4.05;;;3.63;;
47790;SDS011;33547;49.044;1.156;2023-02-28T10:37:41;6.35;;;4.18;;
47790;SDS011;33547;49.044;1.156;2023-02-28T10:43:04;4.80;;;3.80;;
47790;SDS011;33547;49.044;1.156;2023-02-28T10:45:32;4.15;;;3.45;;
47790;SDS011;33547;49.044;1.156;2023-02-28T10:48:02;5.93;;;3.85;;
47790;SDS011;33547;49.044;1.156;2023-02-28T10:50:34;6.10;;;3.65;;
47790;SDS011;33547;49.044;1.156;2023-02-28T10:55:57;5.93;;;3.97;;
47790;SDS011;33547;49.044;1.156;2023-02-28T10:58:24;4.10;;;3.70;;
47790;SDS011;33547;49.044;1.156;2023-02-28T11:00:51;4.60;;;3.45;;
47790;SDS011;33547;49.044;1.156;2023-02-28T11:03:23;4.10;;;3.53;;
47790;SDS011;33547;49.044;1.156;2023-02-28T11:06:03;4.35;;;3.25;;
47790;SDS011;33547;49.044;1.156;2023-02-28T11:08:32;4.07;;;3.30;;
47790;SDS011;33547;49.044;1.156;2023-02-28T11:11:00;8.23;;;3.50;;
47790;SDS011;33547;49.044;1.156;2023-02-28T11:13:34;3.38;;;3.08;;
47790;SDS011;33547;49.044;1.156;2023-02-28T11:16:04;3.83;;;3.00;;
47790;SDS011;33547;49.044;1.156;2023-02-28T11:21:16;3.63;;;2.92;;
47790;SDS011;33547;49.044;1.156;2023-02-28T11:23:49;4.75;;;3.22;;
47790;SDS011;33547;49.044;1.156;2023-02-28T11:26:17;2.83;;;2.63;;
47790;SDS011;33547;49.044;1.156;2023-02-28T11:29:09;4.03;;;2.92;;
47790;SDS011;33547;49.044;1.156;2023-02-28T11:34:36;4.20;;;3.63;;
47790;SDS011;33547;49.044;1.156;2023-02-28T11:37:02;3.85;;;3.30;;
47790;SDS011;33547;49.044;1.156;2023-02-28T11:39:30;3.15;;;2.85;;
47790;SDS011;33547;49.044;1.156;2023-02-28T11:55:39;5.10;;;3.20;;
47790;SDS011;33547;49.044;1.156;2023-02-28T12:01:38;6.15;;;3.80;;
47790;SDS011;33547;49.044;1.156;2023-02-28T12:06:25;6.57;;;3.97;;
47790;SDS011;33547;49.044;1.156;2023-02-28T12:09:09;4.28;;;3.55;;
47790;SDS011;33547;49.044;1.156;2023-02-28T12:11:57;5.22;;;4.20;;
47790;SDS011;33547;49.044;1.156;2023-02-28T12:14:43;3.53;;;3.20;;
47790;SDS011;33547;49.044;1.156;2023-02-28T12:20:17;3.70;;;3.40;;
47790;SDS011;33547;49.044;1.156;2023-02-28T12:28:34;5.50;;;3.75;;
47790;SDS011;33547;49.044;1.156;2023-02-28T12:31:09;4.97;;;3.60;;
47790;SDS011;33547;49.044;1.156;2023-02-28T12:33:40;4.32;;;3.90;;
47790;SDS011;33547;49.044;1.156;2023-02-28T12:36:11;4.57;;;3.70;;
47790;SDS011;33547;49.044;1.156;2023-02-28T12:38:50;7.13;;;3.25;;
47790;SDS011;33547;49.044;1.156;2023-02-28T12:41:19;5.82;;;3.50;;
47790;SDS011;33547;49.044;1.156;2023-02-28T12:44:01;3.90;;;3.60;;
47790;SDS011;33547;49.044;1.156;2023-02-28T12:46:33;6.20;;;3.42;;
47790;SDS011;33547;49.044;1.156;2023-02-28T12:49:04;5.95;;;3.17;;
47790;SDS011;33547;49.044;1.156;2023-02-28T12:51:34;5.65;;;4.03;;
47790;SDS011;33547;49.044;1.156;2023-02-28T13:00:00;3.78;;;3.40;;
47790;SDS011;33547;49.044;1.156;2023-02-28T13:02:51;4.95;;;3.28;;
47790;SDS011;33547;49.044;1.156;2023-02-28T13:08:53;4.13;;;3.67;;
47790;SDS011;33547;49.044;1.156;2023-02-28T13:19:34;7.05;;;3.95;;
47790;SDS011;33547;49.044;1.156;2023-02-28T13:22:03;3.90;;;3.53;;
47790;SDS011;33547;49.044;1.156;2023-02-28T13:27:22;4.10;;;3.22;;
47790;SDS011;33547;49.044;1.156;2023-02-28T13:29:56;4.53;;;3.60;;
47790;SDS011;33547;49.044;1.156;2023-02-28T13:55:49;5.55;;;3.53;;
47790;SDS011;33547;49.044;1.156;2023-02-28T14:01:16;4.07;;;2.92;;
47790;SDS011;33547;49.044;1.156;2023-02-28T14:07:03;3.45;;;3.13;;
47790;SDS011;33547;49.044;1.156;2023-02-28T14:09:31;6.22;;;3.53;;
47790;SDS011;33547;49.044;1.156;2023-02-28T14:11:57;3.90;;;3.50;;
47790;SDS011;33547;49.044;1.156;2023-02-28T14:17:12;3.97;;;3.42;;
47790;SDS011;33547;49.044;1.156;2023-02-28T14:19:41;4.10;;;2.88;;
47790;SDS011;33547;49.044;1.156;2023-02-28T14:27:40;3.72;;;3.25;;
47790;SDS011;33547;49.044;1.156;2023-02-28T14:36:19;4.38;;;3.50;;
47790;SDS011;33547;49.044;1.156;2023-02-28T14:41:29;3.97;;;3.25;;
47790;SDS011;33547;49.044;1.156;2023-02-28T14:44:13;4.35;;;3.63;;
47790;SDS011;33547;49.044;1.156;2023-02-28T14:46:45;4.65;;;3.83;;
47790;SDS011;33547;49.044;1.156;2023-02-28T14:49:17;4.28;;;3.85;;
47790;SDS011;33547;49.044;1.156;2023-02-28T14:54:35;3.63;;;3.33;;
47790;SDS011;33547;49.044;1.156;2023-02-28T14:57:01;5.03;;;4.53;;
47790;SDS011;33547;49.044;1.156;2023-02-28T15:04:55;7.30;;;4.68;;
47790;SDS011;33547;49.044;1.156;2023-02-28T15:07:23;6.00;;;5.03;;
47790;SDS011;33547;49.044;1.156;2023-02-28T15:12:46;7.35;;;5.05;;
47790;SDS011;33547;49.044;1.156;2023-02-28T15:15:18;7.88;;;5.72;;
47790;SDS011;33547;49.044;1.156;2023-02-28T15:17:46;6.55;;;5.95;;
47790;SDS011;33547;49.044;1.156;2023-02-28T15:20:19;6.82;;;6.07;;
47790;SDS011;33547;49.044;1.156;2023-02-28T15:22:46;7.03;;;5.50;;
47790;SDS011;33547;49.044;1.156;2023-02-28T15:25:16;6.20;;;5.60;;
47790;SDS011;33547;49.044;1.156;2023-02-28T15:27:48;5.88;;;5.32;;
47790;SDS011;33547;49.044;1.156;2023-02-28T15:30:18;8.63;;;5.60;;
47790;SDS011;33547;49.044;1.156;2023-02-28T15:33:01;9.63;;;5.32;;
47790;SDS011;33547;49.044;1.156;2023-02-28T15:35:47;6.97;;;6.15;;
47790;SDS011;33547;49.044;1.156;2023-02-28T15:38:18;6.88;;;6.05;;
47790;SDS011;33547;49.044;1.156;2023-02-28T15:40:51;6.88;;;5.90;;
47790;SDS011;33547;49.044;1.156;2023-02-28T15:43:29;8.90;;;6.53;;
47790;SDS011;33547;49.044;1.156;2023-02-28T15:46:09;10.15;;;6.70;;
47790;SDS011;33547;49.044;1.156;2023-02-28T15:48:38;7.50;;;6.38;;
47790;SDS011;33547;49.044;1.156;2023-02-28T15:51:14;8.23;;;7.43;;
47790;SDS011;33547;49.044;1.156;2023-02-28T15:53:46;8.32;;;6.75;;
47790;SDS011;33547;49.044;1.156;2023-02-28T15:58:47;10.80;;;7.05;;
47790;SDS011;33547;49.044;1.156;2023-02-28T16:01:32;8.05;;;6.55;;
47790;SDS011;33547;49.044;1.156;2023-02-28T16:04:05;7.38;;;6.28;;
47790;SDS011;33547;49.044;1.156;2023-02-28T16:06:45;8.57;;;5.90;;
47790;SDS011;33547;49.044;1.156;2023-02-28T16:09:25;8.55;;;6.20;;
47790;SDS011;33547;49.044;1.156;2023-02-28T16:11:53;6.20;;;4.88;;
47790;SDS011;33547;49.044;1.156;2023-02-28T16:14:22;8.02;;;6.60;;
47790;SDS011;33547;49.044;1.156;2023-02-28T16:16:50;7.88;;;6.43;;
47790;SDS011;33547;49.044;1.156;2023-02-28T16:19:18;7.28;;;6.45;;
47790;SDS011;33547;49.044;1.156;2023-02-28T16:21:44;7.22;;;6.10;;
47790;SDS011;33547;49.044;1.156;2023-02-28T16:24:10;9.75;;;5.15;;
47790;SDS011;33547;49.044;1.156;2023-02-28T16:26:36;5.68;;;5.10;;
47790;SDS011;33547;49.044;1.156;2023-02-28T16:29:04;7.40;;;6.70;;
47790;SDS011;33547;49.044;1.156;2023-02-28T16:31:32;6.13;;;5.60;;
47790;SDS011;33547;49.044;1.156;2023-02-28T16:34:01;6.32;;;5.72;;
47790;SDS011;33547;49.044;1.156;2023-02-28T16:36:28;6.28;;;5.43;;
47790;SDS011;33547;49.044;1.156;2023-02-28T16:38:54;6.63;;;5.93;;
47790;SDS011;33547;49.044;1.156;2023-02-28T16:41:22;6.65;;;5.95;;
47790;SDS011;33547;49.044;1.156;2023-02-28T16:43:53;7.18;;;5.78;;
47790;SDS011;33547;49.044;1.156;2023-02-28T16:46:23;10.15;;;5.60;;
47790;SDS011;33547;49.044;1.156;2023-02-28T16:48:51;9.35;;;7.32;;
47790;SDS011;33547;49.044;1.156;2023-02-28T16:51:17;8.50;;;6.75;;
47790;SDS011;33547;49.044;1.156;2023-02-28T16:53:43;7.63;;;6.40;;
47790;SDS011;33547;49.044;1.156;2023-02-28T16:56:12;8.45;;;6.53;;
47790;SDS011;33547;49.044;1.156;2023-02-28T16:58:46;8.70;;;6.63;;
47790;SDS011;33547;49.044;1.156;2023-02-28T17:01:13;6.63;;;5.75;;
47790;SDS011;33547;49.044;1.156;2023-02-28T17:03:39;8.65;;;6.32;;
47790;SDS011;33547;49.044;1.156;2023-02-28T17:06:06;6.28;;;5.38;;
47790;SDS011;33547;49.044;1.156;2023-02-28T17:08:40;7.65;;;5.70;;
47790;SDS011;33547;49.044;1.156;2023-02-28T17:11:06;6.03;;;5.43;;
47790;SDS011;33547;49.044;1.156;2023-02-28T17:13:33;5.55;;;5.05;;
47790;SDS011;33547;49.044;1.156;2023-02-28T17:15:59;5.38;;;4.88;;
47790;SDS011;33547;49.044;1.156;2023-02-28T17:18:25;5.82;;;5.25;;
47790;SDS011;33547;49.044;1.156;2023-02-28T17:20:53;5.63;;;5.10;;
47790;SDS011;33547;49.044;1.156;2023-02-28T17:23:19;5.35;;;4.85;;
47790;SDS011;33547;49.044;1.156;2023-02-28T17:25:44;6.22;;;5.45;;
47790;SDS011;33547;49.044;1.156;2023-02-28T17:28:18;6.30;;;5.78;;
47790;SDS011;33547;49.044;1.156;2023-02-28T17:30:46;6.18;;;5.32;;
47790;SDS011;33547;49.044;1.156;2023-02-28T17:33:12;7.13;;;5.95;;
47790;SDS011;33547;49.044;1.156;2023-02-28T17:35:38;6.65;;;5.88;;
47790;SDS011;33547;49.044;1.156;2023-02-28T17:38:03;6.32;;;5.43;;
47790;SDS011;33547;49.044;1.156;2023-02-28T17:40:29;6.22;;;5.63;;
47790;SDS011;33547;49.044;1.156;2023-02-28T17:42:55;6.65;;;6.05;;
47790;SDS011;33547;49.044;1.156;2023-02-28T17:45:21;7.97;;;5.70;;
47790;SDS011;33547;49.044;1.156;2023-02-28T17:47:47;6.40;;;5.80;;